Time;durP1;ratioP1;P1;durP2;ratioP2;P2;SDS_P1;SDS_P2;PMS_P1;PMS_P2;Temp;Humidity;BMP_temperature;BMP_pressure;BME280_temperature;BME280_humidity;BME280_pressure;Samples;Min_cycle;Max_cycle;Signal;HPM_P1;HPM_P2
2023/11/25 00:00:52;;;;;;;19.15;3.15;;;1.40;99.90;;;1.83;100.00;99745.59;5012614;28;20054;-79
2023/11/25 00:03:18;;;;;;;;;;;1.40;99.90;;;1.83;100.00;99756.34;5019612;28;20022;-81
2023/11/25 00:05:44;;;;;;;10.82;2.17;;;1.30;99.90;;;1.76;100.00;99751.91;5026368;28;20280;-78
2023/11/25 00:08:10;;;;;;;10.75;1.63;;;1.40;99.90;;;2.11;100.00;99757.63;5013940;28;20823;-79
2023/11/25 00:10:36;;;;;;;6.45;1.40;;;1.30;99.90;;;1.92;100.00;99756.31;5012376;28;20034;-81
2023/11/25 00:13:03;;;;;;;5.78;1.42;;;1.20;99.90;;;1.94;100.00;99770.41;5013676;28;20056;-80
2023/11/25 00:15:29;;;;;;;5.15;0.88;;;1.20;99.90;;;2.00;100.00;99767.84;5023789;28;20040;-78
2023/11/25 00:17:55;;;;;;;4.68;0.93;;;1.20;99.90;;;1.68;100.00;99772.44;5012695;28;20401;-80
2023/11/25 00:20:23;;;;;;;6.50;1.30;;;1.20;99.90;;;1.83;100.00;99771.66;5013111;28;20113;-79
2023/11/25 00:22:49;;;;;;;14.45;2.58;;;1.20;99.90;;;1.79;100.00;99797.25;5016615;28;20057;-78
2023/11/25 00:25:15;;;;;;;10.02;1.48;;;1.20;99.90;;;2.02;100.00;99799.91;5011250;28;20507;-80
2023/11/25 00:27:42;;;;;;;7.47;1.10;;;1.30;99.90;;;1.85;100.00;99815.38;5019028;28;20099;-77
2023/11/25 00:30:10;;;;;;;20.40;2.67;;;1.20;99.90;;;1.71;100.00;99806.22;5024749;28;20068;-79
2023/11/25 00:32:40;;;;;;;13.05;3.05;;;1.30;99.90;;;1.86;100.00;99815.19;5024302;28;20046;-78
2023/11/25 00:35:08;;;;;;;8.73;1.48;;;1.20;99.90;;;1.98;100.00;99812.88;5009701;28;20478;-78
2023/11/25 00:37:40;;;;;;;8.70;1.70;;;1.20;99.90;;;1.82;100.00;99815.72;5012091;28;20029;-79
2023/11/25 00:40:10;;;;;;;12.38;3.03;;;1.10;99.90;;;2.12;100.00;99813.13;5030978;28;20045;-78
2023/11/25 00:42:39;;;;;;;7.50;1.60;;;1.20;99.90;;;1.89;100.00;99813.16;5026353;28;20057;-78
2023/11/25 00:45:09;;;;;;;9.10;2.15;;;1.10;99.90;;;1.91;100.00;99819.19;5019381;28;20433;-78
2023/11/25 00:47:36;;;;;;;5.90;1.08;;;1.00;99.90;;;1.86;100.00;99827.78;5036516;28;20044;-79
2023/11/25 00:50:05;;;;;;;9.52;1.77;;;1.00;99.90;;;2.00;100.00;99842.31;5012483;28;20397;-78
2023/11/25 00:52:31;;;;;;;7.90;1.02;;;1.00;99.90;;;1.88;100.00;99833.84;5012366;28;20093;-78
2023/11/25 00:54:57;;;;;;;12.23;2.35;;;1.10;99.90;;;2.19;100.00;99835.59;5023051;28;20428;-78
2023/11/25 00:57:23;;;;;;;6.60;1.75;;;1.10;99.90;;;1.83;100.00;99838.91;5010589;28;20044;-78
2023/11/25 00:59:49;;;;;;;5.57;1.25;;;1.20;99.90;;;2.07;100.00;99831.69;5037669;28;20140;-77
2023/11/25 01:02:15;;;;;;;4.40;1.00;;;1.10;99.90;;;1.88;100.00;99838.38;5018040;28;20453;-78
2023/11/25 01:04:41;;;;;;;4.85;1.02;;;1.00;99.90;;;2.05;100.00;99847.16;5017090;28;20040;-77
2023/11/25 01:07:07;;;;;;;10.88;1.20;;;0.90;99.90;;;1.86;100.00;99850.16;5015763;28;20128;-77
2023/11/25 01:09:34;;;;;;;3.95;1.20;;;0.80;99.90;;;1.81;100.00;99857.91;5019500;28;20463;-78
2023/11/25 01:12:00;;;;;;;5.30;1.20;;;0.70;99.90;;;1.47;100.00;99863.69;5012446;28;20034;-79
2023/11/25 01:14:27;;;;;;;6.57;1.20;;;0.80;99.90;;;1.74;100.00;99862.34;5020091;28;20136;-78
2023/11/25 01:16:53;;;;;;;7.10;1.20;;;0.80;99.90;;;1.71;100.00;99865.38;5028116;28;20047;-80
2023/11/25 01:19:19;;;;;;;7.00;1.73;;;0.80;99.90;;;1.80;100.00;99855.41;5022231;28;20397;-77
2023/11/25 01:21:45;;;;;;;5.45;1.35;;;0.80;99.90;;;1.65;100.00;99866.09;5020593;28;20065;-77
2023/11/25 01:24:13;;;;;;;6.35;1.13;;;0.80;99.90;;;1.69;100.00;99876.31;5018710;28;20061;-77
2023/11/25 01:26:39;;;;;;;3.70;1.05;;;0.80;99.90;;;1.99;100.00;99867.56;5017528;28;20193;-77
2023/11/25 01:29:05;;;;;;;6.68;1.17;;;0.80;99.90;;;1.83;100.00;99863.94;5017526;28;20049;-76
2023/11/25 01:31:31;;;;;;;5.28;1.30;;;0.60;99.90;;;2.11;100.00;99867.97;5031610;28;20034;-77
2023/11/25 01:33:57;;;;;;;3.63;1.17;;;0.50;99.90;;;1.97;100.00;99869.59;5025728;28;20060;-77
2023/11/25 01:36:24;;;;;;;7.43;1.65;;;0.30;99.90;;;1.90;100.00;99868.63;5016123;28;20034;-77
2023/11/25 01:38:49;;;;;;;4.65;1.23;;;0.30;99.90;;;1.83;100.00;99880.09;5016336;28;20052;-76
2023/11/25 01:41:15;;;;;;;8.00;1.00;;;0.30;99.90;;;1.88;100.00;99870.66;5016839;28;20034;-78
2023/11/25 01:43:41;;;;;;;5.80;1.63;;;0.20;99.90;;;1.84;100.00;99876.38;5045443;28;20076;-77
2023/11/25 01:46:07;;;;;;;5.90;1.10;;;0.20;99.90;;;1.86;100.00;99882.44;5029306;28;20076;-78
2023/11/25 01:48:34;;;;;;;5.72;1.27;;;0.20;99.90;;;1.78;100.00;99874.41;5026265;28;20033;-78
2023/11/25 01:51:02;;;;;;;6.97;1.30;;;0.20;99.90;;;1.79;100.00;99873.41;5011169;28;20430;-78
2023/11/25 01:53:29;;;;;;;6.60;0.90;;;0.20;99.90;;;1.85;100.00;99871.84;5010961;28;20295;-78
2023/11/25 01:55:56;;;;;;;8.75;1.90;;;0.20;99.90;;;2.02;100.00;99875.25;5020187;28;20481;-78
2023/11/25 01:58:21;;;;;;;8.63;1.50;;;0.20;99.90;;;2.01;100.00;99866.38;5015338;28;20112;-78
2023/11/25 02:00:49;;;;;;;7.45;1.15;;;0.20;99.90;;;1.93;100.00;99877.16;5010906;28;20140;-78
2023/11/25 02:03:16;;;;;;;4.93;1.15;;;0.20;99.90;;;1.87;100.00;99867.13;5007100;28;20034;-78
2023/11/25 02:05:46;;;;;;;6.70;1.30;;;0.20;99.90;;;1.74;100.00;99870.41;5029107;28;20045;-78
2023/11/25 02:08:12;;;;;;;7.22;1.10;;;0.20;99.90;;;1.76;100.00;99876.44;5014443;28;20076;-78
2023/11/25 02:10:39;;;;;;;6.85;1.02;;;0.30;99.90;;;1.92;100.00;99871.97;5025135;28;20127;-77
2023/11/25 02:13:09;;;;;;;5.13;1.13;;;0.20;99.90;;;1.91;100.00;99875.69;5013822;28;20098;-78
2023/11/25 02:15:41;;;;;;;6.80;1.17;;;0.30;99.90;;;1.84;100.00;99873.69;5032072;28;20065;-77
2023/11/25 02:18:07;;;;;;;5.93;1.20;;;0.30;99.90;;;1.85;100.00;99869.97;5035845;28;20041;-77
2023/11/25 02:20:36;;;;;;;6.28;1.30;;;0.30;99.90;;;1.89;100.00;99877.72;5021852;28;20068;-76
2023/11/25 02:23:04;;;;;;;5.55;1.33;;;0.30;99.90;;;1.80;100.00;99869.69;5032443;28;20082;-77
2023/11/25 02:25:30;;;;;;;;;;;0.30;99.90;;;1.82;100.00;99873.03;5015418;28;20034;-79
2023/11/25 02:27:56;;;;;;;7.32;1.52;;;0.30;99.90;;;1.66;100.00;99873.16;5018352;28;20016;-78
2023/11/25 02:30:23;;;;;;;11.23;1.30;;;0.30;99.90;;;1.70;100.00;99861.03;5040187;28;20061;-76
2023/11/25 02:32:50;;;;;;;11.57;1.48;;;0.40;99.90;;;1.76;100.00;99870.25;5037217;28;20033;-77
2023/11/25 02:35:17;;;;;;;9.45;2.05;;;0.30;99.90;;;1.78;100.00;99869.03;5020147;28;20030;-77
2023/11/25 02:37:45;;;;;;;6.78;1.20;;;0.40;99.90;;;1.89;100.00;99875.03;5015026;28;20070;-76
2023/11/25 02:40:17;;;;;;;6.90;1.17;;;0.40;99.90;;;1.98;100.00;99865.88;5014757;28;20041;-77
2023/11/25 02:42:47;;;;;;;6.10;1.10;;;0.40;99.90;;;1.93;100.00;99873.66;5020857;28;20093;-76
2023/11/25 02:45:20;;;;;;;8.07;1.05;;;0.40;99.90;;;2.01;100.00;99878.97;5014708;28;20089;-77
2023/11/25 02:47:47;;;;;;;5.25;1.00;;;0.50;99.90;;;1.98;100.00;99882.03;5031412;28;20033;-76
2023/11/25 02:50:13;;;;;;;8.48;1.77;;;0.50;99.90;;;1.94;100.00;99865.38;5042186;28;20034;-78
2023/11/25 02:52:40;;;;;;;8.80;1.70;;;0.50;99.90;;;2.07;100.00;99880.94;5026078;28;20087;-77
2023/11/25 02:55:10;;;;;;;8.83;1.80;;;0.50;99.90;;;2.11;100.00;99868.78;5020802;28;20124;-78
2023/11/25 02:57:43;;;;;;;11.07;1.92;;;0.50;99.90;;;1.96;100.00;99863.34;5023492;28;20290;-78
2023/11/25 03:02:51;;;;;;;6.22;1.00;;;0.60;99.90;;;1.89;100.00;99875.03;5025007;28;20371;-78
2023/11/25 03:05:16;;;;;;;8.25;1.42;;;0.70;99.90;;;1.90;100.00;99884.78;5026729;28;20117;-78
2023/11/25 03:07:42;;;;;;;4.30;1.17;;;0.70;99.90;;;1.96;100.00;99868.72;5018079;28;20030;-77
2023/11/25 03:10:09;;;;;;;7.80;1.33;;;0.80;99.90;;;2.19;100.00;99867.06;5017359;28;20029;-76
2023/11/25 03:12:35;;;;;;;13.10;1.50;;;0.80;99.90;;;1.99;100.00;99867.56;5013511;28;20049;-77
2023/11/25 03:15:02;;;;;;;10.98;1.85;;;1.00;99.90;;;2.24;100.00;99854.72;5019786;28;20385;-77
2023/11/25 03:17:29;;;;;;;5.60;1.45;;;1.00;99.90;;;2.37;100.00;99850.59;5028895;28;20033;-76
2023/11/25 03:19:55;;;;;;;11.60;1.75;;;1.10;99.90;;;2.62;100.00;99853.03;5023880;28;20082;-77
2023/11/25 03:22:21;;;;;;;6.40;1.40;;;1.20;99.90;;;2.61;100.00;99854.88;5034082;28;20111;-77
2023/11/25 03:24:48;;;;;;;11.88;1.90;;;1.20;99.90;;;2.48;100.00;99849.31;5022248;28;20033;-77
2023/11/25 03:27:15;;;;;;;9.35;1.60;;;1.20;99.90;;;2.55;100.00;99863.69;5012484;28;20496;-77
2023/11/25 03:29:41;;;;;;;6.32;1.13;;;1.20;99.90;;;2.53;100.00;99854.97;5012543;28;20037;-77
2023/11/25 03:32:06;;;;;;;8.95;1.65;;;1.20;99.90;;;2.69;100.00;99868.28;5018159;28;20052;-77
2023/11/25 03:34:33;;;;;;;7.55;1.50;;;1.30;99.90;;;2.49;100.00;99869.84;5013421;28;20490;-78
2023/11/25 03:36:59;;;;;;;7.45;1.30;;;1.30;99.90;;;2.46;100.00;99854.03;5018821;28;20405;-77
2023/11/25 03:39:26;;;;;;;7.57;1.27;;;1.30;99.90;;;2.48;100.00;99855.50;5020722;28;20055;-77
2023/11/25 03:41:52;;;;;;;8.68;1.60;;;1.30;99.90;;;2.59;100.00;99859.63;5024884;28;20036;-77
2023/11/25 03:44:18;;;;;;;11.00;1.67;;;1.30;99.90;;;2.54;100.00;99853.97;5034363;28;20441;-77
2023/11/25 03:46:44;;;;;;;7.25;1.65;;;1.30;99.90;;;2.76;100.00;99857.59;5022282;28;20037;-77
2023/11/25 03:49:10;;;;;;;10.98;1.48;;;1.40;99.90;;;2.80;100.00;99858.91;5029030;28;20033;-77
2023/11/25 03:51:36;;;;;;;8.57;1.48;;;1.40;99.90;;;3.04;100.00;99856.94;5013311;28;20041;-77
2023/11/25 03:54:02;;;;;;;8.75;1.98;;;1.40;99.90;;;3.05;100.00;99853.25;5032765;28;20491;-77
2023/11/25 03:56:27;;;;;;;8.68;1.20;;;1.40;99.90;;;3.00;100.00;99861.88;5018484;28;20118;-77
2023/11/25 03:58:54;;;;;;;9.10;1.77;;;1.50;99.90;;;3.01;100.00;99865.41;5022405;28;20037;-77
2023/11/25 04:01:20;;;;;;;10.50;1.60;;;1.50;99.90;;;3.09;100.00;99865.31;5014518;28;20049;-77
2023/11/25 04:03:45;;;;;;;8.52;1.73;;;1.60;99.90;;;3.04;100.00;99850.72;5018377;28;20038;-77
2023/11/25 04:06:13;;;;;;;10.68;2.05;;;1.60;99.90;;;3.18;100.00;99860.66;5017904;28;20105;-76
2023/11/25 04:08:39;;;;;;;9.70;1.52;;;1.70;99.90;;;3.02;100.00;99851.75;5021577;28;20444;-77
2023/11/25 04:11:06;;;;;;;3.30;1.05;;;1.80;99.90;;;3.21;100.00;99849.50;5016118;28;20065;-78
2023/11/25 04:13:32;;;;;;;11.35;2.03;;;1.80;99.90;;;3.42;100.00;99850.56;5020069;28;20045;-78
2023/11/25 04:15:59;;;;;;;7.03;1.65;;;1.80;99.90;;;3.21;100.00;99844.13;5012871;28;20128;-78
2023/11/25 04:18:26;;;;;;;10.23;1.40;;;1.80;99.90;;;3.20;100.00;99842.44;5016303;28;20696;-78
2023/11/25 04:20:52;;;;;;;9.57;1.63;;;1.80;99.90;;;3.31;100.00;99838.41;5012231;28;20042;-78
2023/11/25 04:23:19;;;;;;;9.50;1.83;;;1.80;99.90;;;3.37;100.00;99836.81;5019888;28;20049;-78
2023/11/25 04:25:44;;;;;;;6.53;1.17;;;1.80;99.90;;;3.46;100.00;99824.91;5016019;28;20088;-76
2023/11/25 04:28:13;;;;;;;5.70;1.10;;;1.80;99.90;;;3.50;100.00;99828.91;5027988;28;20040;-77
2023/11/25 04:30:40;;;;;;;11.13;1.50;;;1.80;99.90;;;3.54;100.00;99832.88;5027490;28;20038;-77
2023/11/25 04:33:09;;;;;;;6.65;1.38;;;1.80;99.90;;;3.65;100.00;99819.91;5023396;28;20033;-77
2023/11/25 04:35:36;;;;;;;10.35;1.30;;;1.90;99.90;;;3.75;100.00;99812.34;5020915;28;20481;-77
2023/11/25 04:38:03;;;;;;;12.65;1.45;;;1.90;99.90;;;3.58;100.00;99817.13;5017348;28;20038;-77
2023/11/25 04:40:29;;;;;;;8.68;1.27;;;1.80;99.90;;;3.52;100.00;99804.41;5021395;28;20034;-77
2023/11/25 04:42:55;;;;;;;9.20;1.40;;;1.90;99.90;;;3.34;100.00;99804.84;5016801;28;20119;-77
2023/11/25 04:45:20;;;;;;;11.80;1.67;;;1.90;99.90;;;3.49;100.00;99804.81;5019580;28;20033;-77
2023/11/25 04:47:49;;;;;;;11.90;1.30;;;1.90;99.90;;;3.45;100.00;99794.41;5012440;28;20044;-77
2023/11/25 04:50:17;;;;;;;12.93;2.80;;;1.90;99.90;;;3.34;100.00;99796.75;5017835;28;20110;-77
2023/11/25 04:52:43;;;;;;;10.13;1.48;;;1.90;99.90;;;3.45;100.00;99775.53;5017537;28;20034;-77
2023/11/25 04:55:13;;;;;;;16.17;1.50;;;1.90;99.90;;;3.44;100.00;99778.41;5022057;28;20121;-78
2023/11/25 04:57:40;;;;;;;9.48;1.33;;;1.80;99.90;;;3.25;100.00;99764.53;5012509;28;20500;-78
2023/11/25 05:00:10;;;;;;;10.07;1.35;;;1.90;99.90;;;3.37;100.00;99772.09;5016130;28;20049;-78
2023/11/25 05:02:39;;;;;;;7.90;1.30;;;1.90;99.90;;;3.33;100.00;99768.97;5014165;28;20034;-77
2023/11/25 05:05:07;;;;;;;5.95;1.35;;;1.80;99.90;;;3.14;100.00;99778.47;5017497;28;20060;-78
2023/11/25 05:07:34;;;;;;;8.60;1.30;;;1.80;99.90;;;3.37;100.00;99778.34;5018379;28;20129;-78
2023/11/25 05:10:01;;;;;;;9.23;1.20;;;1.80;99.90;;;3.52;100.00;99778.28;5016728;28;20045;-77
2023/11/25 05:12:30;;;;;;;5.68;1.20;;;1.80;99.90;;;3.36;100.00;99781.22;5017599;28;20378;-79
2023/11/25 05:14:55;;;;;;;10.65;1.50;;;1.80;99.90;;;3.53;100.00;99784.50;5018186;28;20477;-78
2023/11/25 05:17:22;;;;;;;8.63;1.60;;;1.80;99.90;;;3.34;100.00;99778.72;5011909;28;20040;-78
2023/11/25 05:19:48;;;;;;;13.63;1.80;;;1.80;99.90;;;3.41;100.00;99771.53;5011738;28;20052;-78
2023/11/25 05:22:14;;;;;;;11.43;1.40;;;1.80;99.90;;;3.31;100.00;99774.53;5012810;28;20045;-78
2023/11/25 05:24:39;;;;;;;8.40;1.55;;;1.70;99.90;;;3.41;100.00;99768.00;5015129;28;20034;-78
2023/11/25 05:27:05;;;;;;;13.18;1.98;;;1.70;99.90;;;3.55;100.00;99763.56;5016759;28;20483;-78
2023/11/25 05:29:32;;;;;;;8.00;1.60;;;1.80;99.90;;;3.60;100.00;99772.78;5021248;28;20592;-78
2023/11/25 05:31:57;;;;;;;13.43;1.83;;;1.90;99.90;;;3.68;100.00;99762.88;5013934;28;20037;-77
2023/11/25 05:34:24;;;;;;;10.35;1.60;;;2.00;99.90;;;3.72;100.00;99778.47;5013044;28;20500;-77
2023/11/25 05:36:50;;;;;;;6.25;1.30;;;2.10;99.90;;;3.71;100.00;99770.56;5017017;28;20137;-78
2023/11/25 05:39:20;;;;;;;8.32;1.23;;;2.10;99.90;;;3.57;100.00;99767.75;5019448;28;20572;-78
2023/11/25 05:41:49;;;;;;;7.43;1.30;;;2.10;99.90;;;4.00;100.00;99749.88;5018482;28;20124;-77
2023/11/25 05:44:15;;;;;;;6.63;1.40;;;2.20;99.90;;;3.97;100.00;99755.66;5015763;28;20045;-78
2023/11/25 05:46:41;;;;;;;8.35;1.40;;;2.30;99.90;;;4.18;100.00;99752.91;5017923;28;20044;-78
2023/11/25 05:49:08;;;;;;;10.57;1.73;;;2.30;99.90;;;4.37;100.00;99755.09;5018192;28;20397;-78
2023/11/25 05:51:38;;;;;;;7.65;1.50;;;2.40;99.90;;;4.38;100.00;99760.31;5015174;28;20030;-78
2023/11/25 05:54:05;;;;;;;11.13;1.60;;;2.50;99.90;;;4.11;100.00;99752.03;5024222;28;20046;-80
2023/11/25 05:56:31;;;;;;;11.43;1.35;;;2.50;99.90;;;4.11;100.00;99752.03;5027147;28;20034;-78
2023/11/25 05:58:57;;;;;;;11.75;1.70;;;2.60;99.90;;;4.19;100.00;99753.75;5018864;28;20038;-79
2023/11/25 06:01:23;;;;;;;8.57;1.60;;;2.70;99.90;;;4.41;100.00;99761.81;5020051;28;20045;-80
2023/11/25 06:03:52;;;;;;;7.72;1.50;;;2.80;99.90;;;4.03;100.00;99749.50;5021828;28;20056;-78
2023/11/25 06:06:21;;;;;;;8.50;1.20;;;2.90;99.90;;;3.99;100.00;99748.22;5017681;28;20176;-79
2023/11/25 06:08:50;;;;;;;13.05;1.60;;;2.90;99.90;;;3.93;100.00;99743.56;5014668;28;20038;-80
2023/11/25 06:11:20;;;;;;;7.85;1.50;;;3.00;99.90;;;3.89;100.00;99730.47;5019715;28;20025;-79
2023/11/25 06:13:46;;;;;;;10.50;1.35;;;3.00;99.90;;;3.87;100.00;99735.22;5021613;28;20106;-80
2023/11/25 06:16:13;;;;;;;6.65;1.40;;;3.00;99.90;;;4.00;100.00;99739.91;5020039;28;20069;-81
2023/11/25 06:18:38;;;;;;;9.68;1.50;;;3.10;99.90;;;4.18;100.00;99752.09;5022904;28;20041;-82
2023/11/25 06:21:04;;;;;;;15.02;1.73;;;3.10;99.90;;;3.85;100.00;99736.47;5020086;28;20045;-80
2023/11/25 06:23:32;;;;;;;8.15;1.10;;;3.20;99.90;;;4.13;100.00;99749.16;5019468;28;20030;-82
2023/11/25 06:25:59;;;;;;;9.63;1.30;;;3.20;99.90;;;4.16;100.00;99754.16;5042469;28;20377;-83
2023/11/25 06:28:25;;;;;;;9.60;1.75;;;3.20;99.90;;;4.20;100.00;99759.97;5016571;28;20042;-81
2023/11/25 06:30:54;;;;;;;8.18;1.58;;;3.20;99.90;;;4.07;100.00;99739.97;5015638;28;20033;-84
2023/11/25 06:33:26;;;;;;;10.02;1.77;;;3.10;99.90;;;4.40;100.00;99744.75;5020231;28;20044;-81
2023/11/25 06:35:55;;;;;;;9.35;1.60;;;3.00;99.90;;;4.71;100.00;99746.16;5030646;28;20140;-82
2023/11/25 06:38:21;;;;;;;11.63;1.55;;;3.00;99.90;;;4.60;100.00;99731.34;5026052;28;20470;-81
2023/11/25 06:40:47;;;;;;;11.27;2.20;;;3.00;99.90;;;4.45;100.00;99739.56;5017279;28;20041;-80
2023/11/25 06:43:15;;;;;;;11.95;1.60;;;2.90;99.90;;;4.55;100.00;99741.91;5019948;28;20036;-79
2023/11/25 06:45:44;;;;;;;9.90;1.67;;;2.90;99.90;;;4.62;100.00;99739.25;5037722;28;20037;-78
2023/11/25 06:48:10;;;;;;;8.80;1.73;;;2.90;99.90;;;4.82;100.00;99741.22;5021646;28;20040;-79
2023/11/25 06:50:37;;;;;;;9.43;1.63;;;2.90;99.90;;;4.75;100.00;99736.59;5008647;28;20042;-78
2023/11/25 06:53:03;;;;;;;10.35;1.48;;;2.90;99.90;;;4.72;100.00;99747.00;5016353;28;20485;-78
2023/11/25 06:55:32;;;;;;;8.60;1.83;;;2.90;99.90;;;4.50;100.00;99754.34;5018399;28;20034;-79
2023/11/25 06:57:58;;;;;;;8.68;1.45;;;2.90;99.90;;;4.42;100.00;99755.38;5016666;28;20029;-78
2023/11/25 07:00:23;;;;;;;9.70;1.70;;;2.90;99.90;;;4.29;100.00;99756.09;5020079;28;20096;-78
2023/11/25 07:02:49;;;;;;;10.13;1.80;;;2.80;99.90;;;4.43;100.00;99732.72;5020340;28;20038;-78
2023/11/25 07:05:15;;;;;;;10.40;1.83;;;2.70;99.90;;;4.29;100.00;99742.59;5033541;28;20040;-78
2023/11/25 07:07:42;;;;;;;14.85;2.53;;;2.60;99.90;;;4.22;100.00;99742.56;5029449;28;20029;-80
2023/11/25 07:10:10;;;;;;;11.50;1.70;;;2.50;99.90;;;3.89;100.00;99738.56;5021028;28;20108;-79
2023/11/25 07:12:37;;;;;;;;;;;2.50;99.90;;;4.09;100.00;99747.84;5018282;28;20037;-77
2023/11/25 07:15:05;;;;;;;6.78;1.80;;;2.40;99.90;;;3.93;100.00;99749.81;5022081;28;20028;-78
2023/11/25 07:17:31;;;;;;;8.77;2.00;;;2.40;99.90;;;3.79;100.00;99750.72;5022067;28;20037;-80
2023/11/25 07:19:57;;;;;;;7.53;1.70;;;2.40;99.90;;;3.93;100.00;99739.03;5022351;28;20045;-79
2023/11/25 07:22:22;;;;;;;13.48;3.20;;;2.30;99.90;;;3.69;100.00;99724.91;5013820;28;20041;-81
2023/11/25 07:24:48;;;;;;;8.77;1.45;;;2.30;99.90;;;4.06;100.00;99734.75;5018103;28;20034;-81
2023/11/25 07:27:18;;;;;;;12.48;1.80;;;2.40;99.90;;;4.03;100.00;99738.69;5017499;28;20494;-79
2023/11/25 07:29:47;;;;;;;16.30;2.13;;;2.40;99.90;;;3.84;100.00;99729.38;5023316;28;20100;-79
2023/11/25 07:32:12;;;;;;;14.85;2.05;;;2.40;99.90;;;3.96;100.00;99726.97;5013867;28;20072;-80
2023/11/25 07:34:38;;;;;;;14.35;2.35;;;2.40;99.90;;;4.10;100.00;99715.25;5017513;28;20046;-80
2023/11/25 07:37:05;;;;;;;21.33;3.42;;;2.40;99.90;;;3.94;100.00;99704.75;5014042;28;20077;-81
2023/11/25 07:39:33;;;;;;;20.08;3.92;;;2.40;99.90;;;3.79;100.00;99712.94;5033335;28;20034;-80
2023/11/25 07:42:00;;;;;;;14.20;2.53;;;2.40;99.90;;;3.91;100.00;99697.06;5014051;28;20041;-81
2023/11/25 07:44:30;;;;;;;14.05;2.75;;;2.40;99.90;;;3.93;100.00;99693.16;5013968;28;20026;-79
2023/11/25 07:46:57;;;;;;;12.25;2.15;;;2.30;99.90;;;3.74;100.00;99683.88;5025010;28;20045;-78
2023/11/25 07:49:23;;;;;;;9.53;2.30;;;2.40;99.90;;;3.69;100.00;99683.59;5023521;28;20081;-78
2023/11/25 07:51:49;;;;;;;9.13;2.33;;;2.40;99.90;;;3.73;100.00;99671.41;5021577;28;20095;-78
2023/11/25 07:54:16;;;;;;;10.85;2.47;;;2.30;99.90;;;3.65;100.00;99677.78;5028123;28;20037;-79
2023/11/25 07:56:42;;;;;;;15.65;2.63;;;2.30;99.90;;;3.92;100.00;99677.13;5023208;28;20454;-78
2023/11/25 07:59:09;;;;;;;13.13;3.75;;;2.30;99.90;;;4.00;100.00;99675.13;5013691;28;20049;-78
2023/11/25 08:01:36;;;;;;;11.55;2.33;;;2.40;99.90;;;4.08;100.00;99676.00;5030955;28;20085;-77
2023/11/25 08:04:03;;;;;;;10.10;2.90;;;2.40;99.90;;;3.87;100.00;99691.25;5015411;28;20093;-78
2023/11/25 08:06:28;;;;;;;11.88;2.58;;;2.40;99.90;;;3.76;100.00;99689.06;5033430;28;20095;-79
2023/11/25 08:08:55;;;;;;;14.48;2.72;;;2.50;99.90;;;3.73;100.00;99695.69;5016649;28;20033;-79
2023/11/25 08:11:28;;;;;;;11.40;2.55;;;2.50;99.90;;;3.85;100.00;99685.22;5018820;28;20030;-80
2023/11/25 08:13:54;;;;;;;10.48;2.30;;;2.50;99.90;;;3.92;100.00;99680.69;5018041;28;20069;-80
2023/11/25 08:16:20;;;;;;;12.40;2.63;;;2.50;99.90;;;3.85;100.00;99675.22;5012092;28;20034;-82
2023/11/25 08:18:47;;;;;;;13.63;2.15;;;2.50;99.90;;;3.73;100.00;99674.94;5013742;28;20046;-82
2023/11/25 08:21:14;;;;;;;16.85;3.00;;;2.50;99.90;;;3.59;100.00;99665.09;5013552;28;20477;-82
2023/11/25 08:23:43;;;;;;;9.93;2.42;;;2.50;99.90;;;4.02;100.00;99670.34;5021040;28;20065;-82
2023/11/25 08:26:29;;;;;;;12.45;2.40;;;2.50;99.90;;;3.70;100.00;99669.09;5026450;28;20346;-82
2023/11/25 08:28:55;;;;;;;7.57;1.98;;;2.50;99.90;;;3.73;100.00;99669.53;5013878;28;20048;-80
2023/11/25 08:31:22;;;;;;;5.97;1.88;;;2.50;99.90;;;4.13;100.00;99677.06;5019496;28;20540;-81
2023/11/25 08:33:48;;;;;;;8.05;2.10;;;2.50;99.90;;;4.23;100.00;99675.88;5032478;28;20038;-80
2023/11/25 08:36:17;;;;;;;8.48;1.90;;;2.60;99.90;;;3.92;100.00;99663.63;5021868;28;20127;-82
2023/11/25 08:38:43;;;;;;;9.00;1.90;;;2.60;99.90;;;4.20;100.00;99671.72;5016907;28;20397;-80
2023/11/25 08:41:09;;;;;;;6.35;2.17;;;2.60;99.90;;;3.78;100.00;99665.41;5031791;28;20045;-79
2023/11/25 08:43:43;;;;;;;11.07;2.60;;;2.60;99.90;;;3.60;100.00;99662.19;5031818;28;20065;-79
2023/11/25 08:46:13;;;;;;;15.77;2.80;;;2.70;99.90;;;3.99;100.00;99651.88;5016036;28;20116;-80
2023/11/25 08:48:41;;;;;;;11.98;2.28;;;2.70;99.90;;;4.07;100.00;99669.78;5013216;28;20576;-78
2023/11/25 08:51:10;;;;;;;8.52;1.45;;;2.80;99.90;;;3.94;100.00;99657.03;5015791;28;20080;-81
2023/11/25 08:53:39;;;;;;;9.27;2.00;;;2.90;99.90;;;4.43;100.00;99660.63;5012054;28;20458;-80
2023/11/25 08:56:06;;;;;;;8.00;1.25;;;3.00;99.90;;;4.34;100.00;99656.44;5024236;28;20047;-82
2023/11/25 08:58:33;;;;;;;6.72;1.40;;;3.00;99.90;;;4.67;100.00;99661.13;5022671;28;20033;-80
2023/11/25 09:00:58;;;;;;;7.60;1.40;;;3.10;99.90;;;4.60;100.00;99671.91;5027670;28;20508;-79
2023/11/25 09:03:24;;;;;;;9.25;1.45;;;3.10;99.90;;;4.20;100.00;99676.28;5039971;28;20112;-78
2023/11/25 09:05:50;;;;;;;5.35;1.17;;;3.20;99.90;;;4.11;100.00;99681.84;5013016;28;20053;-79
2023/11/25 09:08:16;;;;;;;5.25;1.67;;;3.30;99.90;;;4.18;100.00;99680.00;5030877;28;20034;-78
2023/11/25 09:10:43;;;;;;;4.78;1.50;;;3.30;99.90;;;4.10;100.00;99695.53;5019722;28;20041;-78
2023/11/25 09:13:10;;;;;;;6.28;1.30;;;3.30;99.90;;;4.33;100.00;99684.47;5042402;28;20052;-80
2023/11/25 09:15:37;;;;;;;8.27;1.80;;;3.30;99.90;;;4.14;100.00;99669.81;5037311;28;20034;-80
2023/11/25 09:18:06;;;;;;;9.30;1.20;;;3.30;99.90;;;4.44;100.00;99680.38;5010560;28;20034;-80
2023/11/25 09:20:33;;;;;;;7.68;1.15;;;3.40;99.90;;;4.61;100.00;99686.25;5016158;28;20045;-81
2023/11/25 09:22:58;;;;;;;8.40;1.67;;;3.50;99.90;;;5.00;100.00;99697.41;5016675;28;20034;-80
2023/11/25 09:25:24;;;;;;;6.82;1.20;;;3.70;99.90;;;4.92;100.00;99694.91;5027518;28;20045;-78
2023/11/25 09:27:51;;;;;;;10.82;1.20;;;3.70;99.90;;;4.69;100.00;99702.28;5014227;28;20379;-79
2023/11/25 09:30:18;;;;;;;5.80;1.30;;;3.70;99.90;;;4.78;100.00;99696.72;5017331;28;20113;-78
2023/11/25 09:32:44;;;;;;;3.55;1.10;;;3.90;99.90;;;4.87;100.00;99707.13;5011103;28;20302;-79
2023/11/25 09:35:11;;;;;;;6.03;1.33;;;3.90;99.90;;;4.80;100.00;99705.47;5024473;28;20077;-79
2023/11/25 09:37:39;;;;;;;4.70;1.17;;;3.80;99.90;;;4.77;100.00;99709.41;5021595;28;20034;-77
2023/11/25 09:40:06;;;;;;;5.57;1.20;;;3.80;99.90;;;4.88;100.00;99692.59;5019320;28;20454;-77
2023/11/25 09:42:34;;;;;;;;;;;3.70;99.90;;;4.48;100.00;99703.25;5015391;28;20111;-81
2023/11/25 09:45:00;;;;;;;2.80;0.88;;;3.80;99.90;;;5.06;100.00;99685.78;5022413;28;19917;-77
2023/11/25 09:47:27;;;;;;;2.95;0.80;;;3.90;99.90;;;4.71;100.00;99696.69;5011053;28;20209;-77
2023/11/25 09:49:54;;;;;;;3.25;0.68;;;3.90;99.90;;;5.01;100.00;99691.78;5023610;28;20048;-78
2023/11/25 09:52:20;;;;;;;4.57;0.70;;;3.90;99.90;;;4.98;100.00;99689.50;5025242;28;20038;-78
2023/11/25 09:54:46;;;;;;;1.95;0.70;;;3.90;99.90;;;4.81;100.00;99678.22;5016491;28;20061;-78
2023/11/25 09:57:22;;;;;;;3.53;0.70;;;4.00;99.90;;;5.32;100.00;99687.72;5030482;28;20397;-80
2023/11/25 09:59:49;;;;;;;7.40;0.73;;;4.20;99.90;;;5.63;100.00;99690.84;5019412;28;20053;-80
2023/11/25 10:02:16;;;;;;;1.52;0.50;;;4.40;99.90;;;5.57;100.00;99689.84;5026871;28;20106;-80
2023/11/25 10:04:44;;;;;;;1.75;0.50;;;4.40;99.90;;;5.40;100.00;99691.25;5014368;28;20072;-80
2023/11/25 10:07:10;;;;;;;1.25;0.50;;;4.30;99.90;;;4.94;100.00;99692.84;5020763;28;20094;-81
2023/11/25 10:09:42;;;;;;;3.58;0.60;;;4.10;99.90;;;4.94;100.00;99690.94;5020219;28;20542;-80
2023/11/25 10:12:10;;;;;;;2.28;0.60;;;3.90;99.90;;;4.87;100.00;99690.91;5020164;28;20111;-80
2023/11/25 10:14:43;;;;;;;1.02;0.47;;;3.80;99.90;;;4.71;100.00;99684.00;5028846;28;20030;-79
2023/11/25 10:17:20;;;;;;;1.75;0.70;;;3.70;99.90;;;4.31;100.00;99694.63;5017440;28;20052;-81
2023/11/25 10:19:47;;;;;;;1.83;0.80;;;3.60;99.90;;;4.68;100.00;99686.28;5006942;28;20128;-80
2023/11/25 10:22:14;;;;;;;4.37;1.00;;;3.70;99.90;;;4.96;100.00;99661.03;5037052;28;20058;-80
2023/11/25 10:24:53;;;;;;;2.80;0.68;;;3.80;99.90;;;4.70;100.00;99687.75;5018636;28;20319;-82
2023/11/25 10:27:19;;;;;;;2.05;0.90;;;3.80;99.90;;;4.76;100.00;99686.09;5013528;28;20112;-80